McCall, ID (83638)

8:31 AM MDT on August 28, 2015 (GMT -0600)
Cascade Lake | | Change Station
CLOSE
Current Station
Personal Weather Station
Location: Donnelly, ID
Elevation: 4820 ft
Nearby Weather Stations
Active Advisory: Special Statement

Elev 4820 ft 44.71 °N, 116.10 °W | Updated 1 second ago

Clear
Clear
47.8 °F
Feels Like 48 °F
N
0.0
Wind Variable Wind from ENE
Gusts 0.0 mph

Today
High -- | Low -- °F
--% Chance of Precip.
Yesterday
High -- | Low -- °F
Precip. -- in
7:01 AM 8:28 PM
Waxing Gibbous, 98% visible
Pressure 30.06 in
Visibility 4.0 miles
Clouds Clear
Windchill 48 °F
Dew Point 41 °F
Humidity 78%
Rainfall 0.00 in
Snow Depth Not available.
UV 1.0 out of 12
Pollen 8.70 out of 12
Air Quality Not available.
Flu Activity Not available.
METAR KMYL 281351Z AUTO 00000KT 4SM HZ CLR 09/03 A3016 RMK AO2 SLP177 T00940033
Pressure 30.06 in
Visibility 4.0 miles
Clouds Clear
Windchill 48 °F
Dew Point 41 °F
Humidity 78%
Rainfall 0.00 in
Snow Depth Not available.
UV 1.0 out of 12
Pollen 8.70 out of 12
Air Quality Not available.
Flu Activity Not available.
METAR KMYL 281351Z AUTO 00000KT 4SM HZ CLR 09/03 A3016 RMK AO2 SLP177 T00940033

10-Day Weather Forecast

×

Almanac

Astronomy

Aug. 28, 2015 Rise Set
Actual Time
Civil Twilight
Nautical Twilight
Astronomical Twilight
Moon
Length of Visible Light
Length of Day
Tomorrow will be .
, % of the Moon is Illuminated

Today's Extremes

State Highs State Lows

Community

WunderPhotos

Upload Photos

1,850,386 photos uploaded!

WunderBlogs® & News

Nearby

Air Quality

  Air Quality AQ Index Pollutant
Not available.

Snow Depth

Station Depth Elevation

Earthquake Activity

City Distance Mag. Time & Date
Minimum magnitude displayed is 2.5.

Coastal Water Temperatures

Place Temperature

Stations

Nearby Weather Stations

Station Location Temp. Windchill Dew Point Humidity Wind Precip. Elev Updated Type
                   
Special Statement
Statement as of 3:01 AM PDT on August 28, 2015

... Locally breezy Saturday...

A cold front will bring locally breezy southwest to west winds to
southwest Idaho Saturday. The strongest winds of 20 mph with gusts
to 30 mph are expected Saturday afternoon and evening.



401 am MDT Fri Aug 28 2015 /301 am PDT Fri Aug 28 2015/

... Locally breezy Saturday...

A cold front will bring locally breezy southwest to west winds to
southwest Idaho Saturday. The strongest winds of 20 mph with gusts
to 30 mph are expected Saturday afternoon and evening.